Pahrump, Nevada Weather observations

Data are for observation ending at time listed.
 Day   Time    Ave.   Ave.  Ave.  Vector   Max.   Stn.    Total    Solar   Ave.  
  of    of     Air    Rel.  Wind   Wind    Wind   Baro.  Precip.   Rad.    Soil  
Year   Day     Temp.  Hum.  Speed  Dir.    Gust   Pres.                    Temp. 
2014   (PST)    F      %     mph   deg.    mph     mb.     in.     W/m2     F   
------------------------------------------------------------------------------
 234   12:20   91.0    22    9.0   165     17.1   923.1    0.00     934    88.9
 234   12:30   91.5    22    9.2   175     17.1   923.1    0.00     937    89.4
 234   12:40   91.0    22    6.7   193     16.1   923.1    0.00     931    89.9
 234   12:50   91.5    21    9.4   151     16.7   923.0    0.00     919    90.3
 234   13:00   92.3    20    8.2   174     13.7   922.9    0.00     918    90.8
 234   13:10   92.3    20    8.3   171     15.0   922.8    0.00     901    91.2
 234   13:20   92.4    20    9.2   164     15.6   922.6    0.00     904    91.6
 234   13:30   92.3    20   10.9   152     17.2   922.6    0.00     882    91.9
 234   13:40   91.9    20    8.7   182     15.3   922.4    0.00     868    92.3
 234   13:50   92.4    18    8.8   157     18.9   922.2    0.00     762    92.6
 234   14:00   92.3    19    8.5   173     18.6   922.0    0.00     783    92.8
 234   14:10   93.0    19    5.7   214     14.8   921.8    0.00     817    93.0
 234   14:20   92.8    19    5.8   211     11.6   921.6    0.00     811    93.2
 234   14:30   93.3    19    6.8   211     18.9   921.5    0.00     766    93.3
 234   14:40   93.1    19    5.5   223     17.4   921.3    0.00     739    93.4
 234   14:50   92.6    19    6.4   209     14.0   921.2    0.00     708    93.3
 234   15:00   92.5    18    7.6   180     15.5   921.0    0.00     681    93.1
 234   15:10   92.4    18    5.4   203     10.6   920.9    0.00     653    92.9
 234   15:20   92.2    19    7.1   198     15.1   920.7    0.00     623    92.7
 234   15:30   92.2    19    9.3   188     15.1   920.6    0.00     591    92.5
 234   15:40   92.6    19    7.5   193     15.6   920.5    0.00     558    92.3
 234   15:50   92.1    19   10.0   181     15.9   920.4    0.00     525    92.0
 234   16:00   91.6    19    8.8   179     16.3   920.3    0.00     492    91.8
 234   16:10   91.9    19   10.7   176     19.2   920.2    0.00     459    91.7
 234   16:20   92.1    19   11.0   161     19.1   920.1    0.00     422    91.5
 234   16:30   92.2    19   11.4   164     16.2   920.0    0.00     383    91.3
 234   16:40   92.1    19   11.5   165     17.3   919.9    0.00     228    91.2
 234   16:50   92.0    19   11.0   178     18.1   919.8    0.00      38    91.1
 234   17:00   91.4    20   11.5   173     18.4   919.7    0.00      37    90.9
 234   17:10   91.3    20   13.6   173     20.3   919.5    0.00      36    90.8
 234   17:20   91.1    20   11.9   174     18.2   919.4    0.00      32    90.7
 234   17:30   90.8    21   12.4   183     18.5   919.3    0.00      30    90.6
 234   17:40   90.4    22   12.8   173     20.2   919.3    0.00      28    90.5
 234   17:50   90.2    22   13.5   168     18.4   919.3    0.00      23    90.4
 234   18:00   89.6    23   13.0   175     18.1   919.2    0.00      21    90.3
 234   18:10   89.5    23   11.4   170     17.5   919.2    0.00      17    90.2
 234   18:20   89.3    23   11.6   171     17.8   919.2    0.00      12    90.1
 234   18:30   88.8    24   11.9   173     19.2   919.4    0.00       6    90.0
 234   18:40   88.2    24   12.6   181     19.9   919.4    0.00       3    89.9
 234   18:50   87.7    25   11.8   181     20.6   919.4    0.00       1    89.8
 234   19:00   87.6    25   11.0   170     18.1   919.4    0.00       0    89.7
 234   19:10   87.3    25   11.1   174     18.6   919.6    0.00       0    89.6
 234   19:20   87.1    25   10.2   172     14.3   919.6    0.00       0    89.5
 234   19:30   86.9    25   11.0   163     16.4   919.7    0.00       0    89.3
 234   19:40   86.5    26   11.7   168     19.2   919.7    0.00       0    89.3
 234   19:50   86.3    26   11.3   163     18.3   919.7    0.00       0    89.1
 234   20:00   86.0    26   11.1   167     17.6   919.8    0.00       0    89.0
 234   20:10   85.7    27   10.3   175     18.4   919.9    0.00       0    88.9
 234   20:20   85.7    27   11.7   180     18.0   919.9    0.00       0    88.8
 234   20:30   85.4    27    9.2   177     14.2   919.8    0.00       0    88.6
 234   20:40   85.3    27   11.8   177     17.8   919.8    0.00       0    88.5
 234   20:50   85.0    28   10.8   178     19.6   919.8    0.00       0    88.4
 234   21:00   84.7    28   10.8   171     18.2   919.8    0.00       0    88.3
 234   21:10   84.3    28   11.0   177     16.2   919.8    0.00       0    88.2
 234   21:20   84.1    27    9.3   178     15.0   919.8    0.00       0    88.1
 234   21:30   83.6    28    8.2   168     11.6   919.9    0.00       0    88.1
 234   21:40   83.1    28    9.4   169     14.0   919.9    0.00       0    87.9
 234   21:50   82.9    28    8.9   165     14.0   919.9    0.00       0    87.8
 234   22:00   82.5    27    8.2   173     13.1   920.1    0.00       0    87.7
 234   22:10   82.5    27    8.8   181     13.6   920.1    0.00       0    87.6
 234   22:20   82.4    28    9.0   159     14.7   920.3    0.00       0    87.5
 234   22:30   81.8    30   11.7   169     17.2   920.4    0.00       0    87.3
 234   22:40   81.4    31   12.2   172     18.0   920.3    0.00       0    87.2
 234   22:50   81.2    32   11.9   178     20.0   920.3    0.00       0    87.1
 234   23:00   81.0    32   11.6   186     20.4   920.3    0.00       0    87.0
 234   23:10   80.8    32   10.5   190     22.6   920.2    0.00       0    86.9
 234   23:20   80.6    32   10.7   191     17.5   920.1    0.00       0    86.8
 234   23:30   80.4    32   10.0   187     16.8   920.0    0.00       0    86.7
 234   23:40   80.2    32   10.8   180     17.5   920.0    0.00       0    86.6
 234   23:50   79.8    33    9.5   170     14.7   920.0    0.00       0    86.5
 235    0:00   79.2    33    7.7   162     13.4   919.9    0.00       0    86.4
 235    0:10   78.9    34    8.3   155     11.7   919.9    0.00       0    86.3
 235    0:20   78.6    34    7.8   140     12.3   919.9    0.00       0    86.2
 235    0:30   78.8    33    9.3   157     16.0   919.8    0.00       0    86.1
 235    0:40   79.3    32    9.8   153     15.8   919.8    0.00       0    86.0
 235    0:50   79.4    31    9.1   165     12.9   919.8    0.00       0    85.9
 235    1:00   78.8    32    7.2   169     11.1   919.8    0.00       0    85.8
 235    1:10   78.5    34    6.3   170     10.2   919.7    0.00       0    85.7
 235    1:20   78.3    35    6.3   177     10.4   919.7    0.00       0    85.6
 235    1:30   77.5    36    6.1   177      9.8   919.8    0.00       0    85.4
 235    1:40   77.6    35    7.5   175     11.9   919.8    0.00       0    85.4
 235    1:50   77.4    35    6.4   177      9.3   919.7    0.00       0    85.3
 235    2:00   77.1    36    7.6   173     11.0   919.6    0.00       0    85.2
 235    2:10   77.3    35    8.0   176     13.9   919.5    0.00       0    85.0
 235    2:20   77.0    35    7.3   168     10.7   919.6    0.00       0    84.9
 235    2:30   77.3    34    7.4   159     11.7   919.6    0.00       0    84.8
 235    2:40   77.2    34    7.3   157     11.3   919.7    0.00       0    84.8
 235    2:50   77.1    34    7.3   158     11.8   919.7    0.00       0    84.7
 235    3:00   76.9    34    7.5   149     12.4   919.7    0.00       0    84.6
 235    3:10   76.6    33    8.0   141     12.9   919.8    0.00       0    84.5
 235    3:20   76.2    34    7.3   142     11.1   919.8    0.00       0    84.4
 235    3:30   75.8    34    7.0   148     12.4   919.7    0.00       0    84.3
 235    3:40   75.7    34    8.0   162     11.1   919.7    0.00       0    84.2
 235    3:50   75.5    35    7.6   163     10.9   919.7    0.00       0    84.1
 235    4:00   75.3    35    8.1   160     12.1   919.6    0.00       0    84.0
 235    4:10   75.3    35    9.6   163     13.2   919.6    0.00       0    83.9
 235    4:20   75.1    35    9.8   168     14.1   919.7    0.00       0    83.8
 235    4:30   74.8    35   10.5   171     16.0   919.8    0.00       0    83.7
 235    4:40   74.7    35    9.8   162     14.4   919.9    0.00       0    83.6
 235    4:50   74.6    34    9.0   150     14.2   920.0    0.00       0    83.6
 235    5:00   74.6    34    7.7   158     11.5   920.1    0.00       0    83.5
 235    5:10   74.2    34    8.2   155     14.3   920.2    0.00       3    83.4
 235    5:20   74.2    34    8.1   138     11.5   920.3    0.00       4    83.3
 235    5:30   74.1    34    8.7   133     12.7   920.5    0.00      10    83.2
 235    5:40   73.7    34    9.0   136     12.9   920.6    0.00      16    83.1
 235    5:50   74.2    33    9.8   138     14.5   920.6    0.00      39    83.0
 235    6:00   74.9    32    9.7   142     15.2   920.7    0.00      76    82.9
 235    6:10   75.3    32    8.7   145     13.8   920.8    0.00     112    82.8
 235    6:20   75.8    31    8.2   152     12.0   921.0    0.00     144    82.8
 235    6:30   76.1    31    8.6   154     13.7   921.1    0.00     175    82.8
 235    6:40   76.6    30    8.7   150     12.9   921.4    0.00     208    82.8
 235    6:50   77.2    30    8.8   158     15.4   921.6    0.00     242    82.8
 235    7:00   77.8    29    8.2   156     12.9   921.8    0.00     276    82.9
 235    7:10   78.0    29    8.4   161     13.0   922.1    0.00     311    83.0
 235    7:20   78.2    29   10.1   171     15.2   922.3    0.00     347    83.2
 235    7:30   78.5    28    9.5   168     14.4   922.4    0.00     382    83.4
 235    7:40   78.7    28    9.4   167     13.2   922.5    0.00     417    83.6
 235    7:50   79.1    28    7.5   175     11.8   922.5    0.00     452    83.8
 235    8:00   79.6    27    7.7   180     13.0   922.6    0.00     485    84.0
 235    8:10   80.3    26    7.2   184     11.8   922.8    0.00     518    84.2
 235    8:20   80.8    26    6.2   192     10.3   923.0    0.00     551    84.5
 235    8:30   81.5    26    4.5   200      9.2   923.1    0.00     582    84.8
 235    8:40   82.1    25    5.5   185      9.3   923.3    0.00     612    85.1
 235    8:50   82.4    25    4.9   198     11.0   923.4    0.00     644    85.4
 235    9:00   83.5    24    3.4   202      9.1   923.5    0.00     671    85.7
 235    9:10   83.9    23    4.4   215      9.3   923.7    0.00     699    86.1
 235    9:20   84.7    23    4.1   211      9.3   923.7    0.00     726    86.4
 235    9:30   84.7    22    4.5   188     10.0   923.8    0.00     751    86.7
 235    9:40   84.8    22    3.9   221      8.4   923.9    0.00     774    86.9
 235    9:50   86.0    22    4.0   194      8.5   924.0    0.00     796    87.1
 235   10:00   86.3    21    1.8   150      4.4   924.0    0.00     817    87.2
 235   10:10   86.8    21    4.0   180      8.0   924.1    0.00     838    87.2
 235   10:20   86.6    21    3.4   205      8.1   924.1    0.00     855    87.2
 235   10:30   88.7    20    2.6   234      7.0   924.1    0.00     870    87.2
 235   10:40   89.3    20    3.4   265      7.4   924.1    0.00     886    87.2
 235   10:50   89.2    20    3.2   263      8.8   924.1    0.00     899    87.1
 235   11:00   90.2    19    3.2   238      7.7   924.1    0.00     911    87.2
 235   11:10   89.3    20    3.3   228      8.1   924.0    0.00     921    87.2
 235   11:20   89.0    19    4.1   146      8.2   924.0    0.00     929    87.2
 235   11:30   89.0    19    2.5   138      6.7   923.8    0.00     936    87.4
 235   11:40   88.8    19    5.0   190      8.7   923.7    0.00     942    87.7
 235   11:50   89.5    19    2.9   215      7.6   923.7    0.00     943    88.1
 235   12:00   90.4    19    3.2   300      7.7   923.5    0.00     945    88.6
 235   12:10   91.0    18    3.2   188     10.2   923.5    0.00     947    89.2

Return to Pahrump, Nevada graphs page.


Western Regional Climate Center,wrcc@dri.edu